createdAt,value
2023-03-24T00:03:34.630Z,75.82
2023-03-24T00:08:41.509Z,75.96
2023-03-24T00:13:50.409Z,76.20
2023-03-24T00:18:56.583Z,76.52
2023-03-24T00:24:03.013Z,76.79
2023-03-24T00:29:13.869Z,77.34
2023-03-24T00:34:21.853Z,77.61
2023-03-24T00:39:27.621Z,77.83
2023-03-24T00:44:34.434Z,78.01
2023-03-24T00:49:44.827Z,77.69
2023-03-24T00:54:55.297Z,77.26
2023-03-24T01:00:14.658Z,77.41
2023-03-24T01:05:28.465Z,77.78
2023-03-24T01:10:36.320Z,78.13
2023-03-24T01:15:41.884Z,78.91
2023-03-24T01:20:51.528Z,79.69
2023-03-24T01:25:57.124Z,80.27
2023-03-24T01:31:02.913Z,80.85
2023-03-24T01:36:09.790Z,81.17
2023-03-24T01:41:15.625Z,81.26
2023-03-24T01:46:22.908Z,81.48
2023-03-24T01:51:35.414Z,82.29
2023-03-24T01:56:47.314Z,82.80
2023-03-24T02:02:04.986Z,83.85
2023-03-24T02:07:22.097Z,84.46
2023-03-24T02:12:27.746Z,84.58
2023-03-24T02:17:54.795Z,84.89
2023-03-24T02:23:24.535Z,85.77
2023-03-24T02:28:43.317Z,86.12
2023-03-24T02:34:19.207Z,86.43
2023-03-24T02:39:47.547Z,86.76
2023-03-24T02:45:04.923Z,87.47
2023-03-24T02:50:18.451Z,88.31
2023-03-24T02:55:31.545Z,88.25
2023-03-24T03:00:47.345Z,88.27
2023-03-24T03:06:23.601Z,89.60
2023-03-24T03:11:29.181Z,90.76
2023-03-24T03:16:39.378Z,90.53
2023-03-24T03:21:48.368Z,90.54
2023-03-24T03:27:00.365Z,91.09
2023-03-24T03:32:17.811Z,91.26
2023-03-24T03:37:30.608Z,91.16
2023-03-24T03:42:36.838Z,91.61
2023-03-24T03:47:43.195Z,92.66
2023-03-24T03:52:50.968Z,94.86
2023-03-24T03:57:56.733Z,96.07
2023-03-24T04:03:39.300Z,95.92
2023-03-24T04:08:50.965Z,96.47
2023-03-24T04:14:11.535Z,96.43
2023-03-24T04:19:40.776Z,95.40
2023-03-24T04:24:51.801Z,95.82
2023-03-24T04:30:16.519Z,97.84
2023-03-24T04:35:42.070Z,98.75
2023-03-24T04:40:58.790Z,97.78
2023-03-24T04:46:05.691Z,98.80
2023-03-24T04:51:33.110Z,99.15
2023-03-24T04:56:52.029Z,98.92
2023-03-24T05:02:03.001Z,98.66
2023-03-24T05:07:17.526Z,97.96
2023-03-24T05:12:24.984Z,97.19
2023-03-24T05:17:54.697Z,96.88
2023-03-24T05:23:02.910Z,96.81
2023-03-24T05:28:08.526Z,96.66
2023-03-24T05:33:14.360Z,97.01
2023-03-24T05:38:19.873Z,97.33
2023-03-24T05:43:27.881Z,96.95
2023-03-24T05:48:44.457Z,95.82
2023-03-24T05:53:52.698Z,94.66
2023-03-24T05:59:03.083Z,93.76
2023-03-24T06:04:36.024Z,92.68
2023-03-24T06:09:52.472Z,91.66
2023-03-24T06:14:59.054Z,90.67
2023-03-24T06:20:14.975Z,89.73
2023-03-24T06:25:28.582Z,88.66
2023-03-24T06:30:45.180Z,88.02
2023-03-24T06:35:52.533Z,86.82
2023-03-24T06:41:03.663Z,85.59
2023-03-24T06:46:10.986Z,84.84
2023-03-24T06:51:19.228Z,84.23
2023-03-24T06:56:25.326Z,84.14
2023-03-24T07:01:36.109Z,83.77
2023-03-24T07:07:19.708Z,83.49
2023-03-24T07:12:31.146Z,83.31
2023-03-24T07:17:36.988Z,83.11
2023-03-24T07:22:59.133Z,82.92
2023-03-24T07:28:05.207Z,83.22
2023-03-24T07:33:12.504Z,82.65
2023-03-24T07:38:19.556Z,82.16
2023-03-24T07:43:26.345Z,82.09
2023-03-24T07:48:47.707Z,81.73
2023-03-24T07:53:53.517Z,81.48
2023-03-24T07:59:14.623Z,81.48
2023-03-24T08:04:42.919Z,81.12
2023-03-24T08:09:57.825Z,81.21
2023-03-24T08:15:04.124Z,82.43
2023-03-24T08:20:15.160Z,83.72
2023-03-24T08:25:24.082Z,84.81
2023-03-24T08:30:30.488Z,85.71
2023-03-24T08:35:40.072Z,86.76
2023-03-24T08:40:45.940Z,87.15
2023-03-24T08:45:51.879Z,87.33
2023-03-24T08:50:57.909Z,87.40
2023-03-24T08:56:06.045Z,86.42
2023-03-24T09:01:12.493Z,85.98
2023-03-24T09:06:18.099Z,86.26
2023-03-24T09:11:24.691Z,86.39
2023-03-24T09:16:31.792Z,87.03
2023-03-24T09:21:38.507Z,87.43
2023-03-24T09:26:44.330Z,86.02
2023-03-24T09:31:51.962Z,84.32
2023-03-24T09:36:57.475Z,79.98
2023-03-24T09:42:06.027Z,73.83
2023-03-24T09:47:21.963Z,66.13
2023-03-24T09:52:33.913Z,61.63
2023-03-24T09:57:44.418Z,59.53
2023-03-24T10:02:52.157Z,61.40
2023-03-24T10:08:06.053Z,61.43
2023-03-24T10:13:21.340Z,62.67
2023-03-24T10:18:34.713Z,64.63
2023-03-24T10:23:48.537Z,65.35
2023-03-24T10:29:04.862Z,66.98
2023-03-24T10:34:13.252Z,68.18
2023-03-24T10:39:21.111Z,67.94
2023-03-24T10:44:31.704Z,67.29
2023-03-24T10:49:38.363Z,67.25
2023-03-24T10:54:56.461Z,67.53
2023-03-24T11:00:26.898Z,67.74
2023-03-24T11:05:35.408Z,66.53
2023-03-24T11:10:40.972Z,66.14
2023-03-24T11:16:04.374Z,66.46
2023-03-24T11:21:10.056Z,65.79
2023-03-24T11:26:18.198Z,65.41
2023-03-24T11:31:25.934Z,66.69
2023-03-24T11:36:46.847Z,67.58
2023-03-24T11:42:04.552Z,67.58
2023-03-24T11:47:13.085Z,67.32
2023-03-24T11:52:24.252Z,68.12
2023-03-24T11:57:47.542Z,68.38
2023-03-24T12:03:19.766Z,66.80
2023-03-24T12:08:36.918Z,66.31
2023-03-24T12:13:45.408Z,66.73
2023-03-24T12:19:08.615Z,66.59
2023-03-24T12:24:24.391Z,66.70
2023-03-24T12:29:48.414Z,65.96
2023-03-24T12:35:27.253Z,65.70
2023-03-24T12:40:59.875Z,64.03
2023-03-24T12:46:37.117Z,62.81
2023-03-24T12:52:07.398Z,58.38
2023-03-24T12:57:16.443Z,56.95
2023-03-24T13:02:30.526Z,56.17
2023-03-24T13:07:39.419Z,55.12
2023-03-24T13:12:51.356Z,54.48
2023-03-24T13:18:06.977Z,54.51
2023-03-24T13:23:32.294Z,54.35
2023-03-24T13:28:46.997Z,54.14
2023-03-24T13:33:54.687Z,53.52
2023-03-24T13:39:05.560Z,52.41
2023-03-24T13:44:22.666Z,51.64
2023-03-24T13:49:30.582Z,51.98
2023-03-24T13:54:38.973Z,52.26
2023-03-24T14:00:08.527Z,52.57
2023-03-24T14:05:32.109Z,52.60
2023-03-24T14:10:46.115Z,52.07
2023-03-24T14:15:53.588Z,51.30
2023-03-24T14:21:04.013Z,51.12
2023-03-24T14:26:12.745Z,51.11
2023-03-24T14:31:24.597Z,51.46
2023-03-24T14:36:33.079Z,51.41
2023-03-24T14:41:42.285Z,51.60
2023-03-24T14:46:50.337Z,51.26
2023-03-24T14:52:01.982Z,51.50
2023-03-24T14:57:08.959Z,51.61
2023-03-24T15:02:23.948Z,51.73
2023-03-24T15:07:29.460Z,51.48
2023-03-24T15:12:35.287Z,51.70
2023-03-24T15:17:44.401Z,52.20
2023-03-24T15:22:51.047Z,52.34
2023-03-24T15:28:00.466Z,52.67
2023-03-24T15:33:06.780Z,53.13
2023-03-24T15:38:29.206Z,52.73
2023-03-24T15:43:41.111Z,52.87
2023-03-24T15:48:48.327Z,53.34
2023-03-24T15:53:59.036Z,53.23
2023-03-24T15:59:15.581Z,53.38
2023-03-24T16:04:23.384Z,53.42
2023-03-24T16:09:38.942Z,54.25
2023-03-24T16:14:44.266Z,54.58
2023-03-24T16:19:50.198Z,54.81
2023-03-24T16:24:55.627Z,55.35
2023-03-24T16:30:01.963Z,55.67
2023-03-24T16:35:09.324Z,55.96
2023-03-24T16:40:25.713Z,56.20
2023-03-24T16:45:31.848Z,56.71
2023-03-24T16:50:40.911Z,57.86
2023-03-24T16:55:47.738Z,61.33
2023-03-24T17:00:55.069Z,69.34
2023-03-24T17:06:01.669Z,74.09
2023-03-24T17:11:11.270Z,77.33
2023-03-24T17:16:17.151Z,80.25
2023-03-24T17:21:23.810Z,83.04
2023-03-24T17:26:30.961Z,85.36
2023-03-24T17:31:37.667Z,87.77
2023-03-24T17:36:43.098Z,89.70
2023-03-24T17:41:48.504Z,91.27
2023-03-24T17:46:54.339Z,92.54
2023-03-24T17:51:59.812Z,93.26
2023-03-24T17:57:05.472Z,94.71
2023-03-24T18:02:13.800Z,95.87
2023-03-24T18:07:19.835Z,96.85
2023-03-24T18:12:26.171Z,97.90
2023-03-24T18:17:31.724Z,99.13
2023-03-24T18:22:40.769Z,99.90
2023-03-24T18:27:46.577Z,100.00
2023-03-24T18:32:52.199Z,100.00
2023-03-24T18:37:57.992Z,100.00
2023-03-24T18:43:03.489Z,100.00
2023-03-24T18:48:10.226Z,100.00
2023-03-24T18:53:16.129Z,100.00
2023-03-24T18:58:22.308Z,100.00
2023-03-24T19:03:29.012Z,100.00
2023-03-24T19:08:35.827Z,100.00
2023-03-24T19:13:41.566Z,100.00
2023-03-24T19:18:48.631Z,100.00
2023-03-24T19:23:54.469Z,100.00
2023-03-24T19:28:59.785Z,100.00
2023-03-24T19:34:05.261Z,100.00
2023-03-24T19:39:13.668Z,100.00
2023-03-24T19:44:19.252Z,100.00
2023-03-24T19:49:24.825Z,100.00
2023-03-24T19:54:30.666Z,100.00
2023-03-24T19:59:37.419Z,100.00
2023-03-24T20:04:43.329Z,100.00
2023-03-24T20:09:48.999Z,100.00
2023-03-24T20:14:54.903Z,100.00
2023-03-24T20:20:01.080Z,100.00
2023-03-24T20:25:08.812Z,100.00
2023-03-24T20:30:16.358Z,100.00
2023-03-24T20:35:22.628Z,100.00
2023-03-24T20:40:28.168Z,100.00
2023-03-24T20:45:33.674Z,100.00
2023-03-24T20:50:39.462Z,100.00
2023-03-24T20:55:49.055Z,100.00
2023-03-24T21:00:55.186Z,100.00
2023-03-24T21:06:01.468Z,100.00
2023-03-24T21:11:06.951Z,100.00
2023-03-24T21:16:13.769Z,100.00
2023-03-24T21:21:19.446Z,100.00
2023-03-24T21:26:25.812Z,100.00
2023-03-24T21:31:31.229Z,100.00
2023-03-24T21:36:38.597Z,100.00
2023-03-24T21:41:44.660Z,100.00
2023-03-24T21:46:50.078Z,100.00
2023-03-24T21:51:56.801Z,99.29
2023-03-24T21:57:04.082Z,98.74
2023-03-24T22:02:14.512Z,99.50
2023-03-24T22:07:22.535Z,99.60
2023-03-24T22:12:27.909Z,99.98
2023-03-24T22:17:33.396Z,100.00
2023-03-24T22:22:39.850Z,100.00
2023-03-24T22:27:46.225Z,100.00
2023-03-24T22:32:51.656Z,100.00
2023-03-24T22:37:57.209Z,100.00
2023-03-24T22:43:02.670Z,100.00
2023-03-24T22:48:08.439Z,100.00
2023-03-24T22:53:14.131Z,100.00
2023-03-24T22:58:19.578Z,100.00
2023-03-24T23:03:25.482Z,100.00
2023-03-24T23:08:32.649Z,100.00
2023-03-24T23:13:38.864Z,100.00
2023-03-24T23:18:44.618Z,100.00
2023-03-24T23:23:51.128Z,100.00
2023-03-24T23:28:57.219Z,100.00
2023-03-24T23:34:04.537Z,100.00
2023-03-24T23:39:10.646Z,100.00
2023-03-24T23:44:19.608Z,100.00
2023-03-24T23:49:25.567Z,100.00
2023-03-24T23:54:45.355Z,100.00
2023-03-24T23:59:53.153Z,100.00
